sensor_id;sensor_type;location;lat;lon;timestamp;P1;durP1;ratioP1;P2;durP2;ratioP2
23802;SDS011;12082;51.786;6.018;2022-08-01T00:00:29;52.63;;;25.00;;
23802;SDS011;12082;51.786;6.018;2022-08-01T00:02:55;47.43;;;22.70;;
23802;SDS011;12082;51.786;6.018;2022-08-01T00:05:20;45.73;;;21.53;;
23802;SDS011;12082;51.786;6.018;2022-08-01T00:07:46;45.90;;;24.03;;
23802;SDS011;12082;51.786;6.018;2022-08-01T00:10:12;47.20;;;23.27;;
23802;SDS011;12082;51.786;6.018;2022-08-01T00:12:39;58.27;;;24.67;;
23802;SDS011;12082;51.786;6.018;2022-08-01T00:15:06;65.07;;;24.80;;
23802;SDS011;12082;51.786;6.018;2022-08-01T00:17:33;63.70;;;23.93;;
23802;SDS011;12082;51.786;6.018;2022-08-01T00:19:59;46.13;;;19.93;;
23802;SDS011;12082;51.786;6.018;2022-08-01T00:22:27;55.47;;;20.90;;
23802;SDS011;12082;51.786;6.018;2022-08-01T00:24:53;39.70;;;18.27;;
23802;SDS011;12082;51.786;6.018;2022-08-01T00:27:18;44.50;;;18.87;;
23802;SDS011;12082;51.786;6.018;2022-08-01T00:29:44;50.20;;;18.90;;
23802;SDS011;12082;51.786;6.018;2022-08-01T00:32:09;39.03;;;17.30;;
23802;SDS011;12082;51.786;6.018;2022-08-01T00:34:35;39.43;;;17.20;;
23802;SDS011;12082;51.786;6.018;2022-08-01T00:37:00;38.80;;;16.10;;
23802;SDS011;12082;51.786;6.018;2022-08-01T00:39:26;46.73;;;17.20;;
23802;SDS011;12082;51.786;6.018;2022-08-01T00:41:51;41.83;;;17.27;;
23802;SDS011;12082;51.786;6.018;2022-08-01T00:44:17;45.43;;;18.50;;
23802;SDS011;12082;51.786;6.018;2022-08-01T00:46:43;40.97;;;15.57;;
23802;SDS011;12082;51.786;6.018;2022-08-01T00:49:08;36.47;;;15.87;;
23802;SDS011;12082;51.786;6.018;2022-08-01T00:51:34;38.83;;;15.50;;
23802;SDS011;12082;51.786;6.018;2022-08-01T00:54:00;30.17;;;13.17;;
23802;SDS011;12082;51.786;6.018;2022-08-01T00:56:26;31.23;;;13.93;;
23802;SDS011;12082;51.786;6.018;2022-08-01T00:58:53;34.53;;;14.33;;
23802;SDS011;12082;51.786;6.018;2022-08-01T01:01:20;31.77;;;13.40;;
23802;SDS011;12082;51.786;6.018;2022-08-01T01:03:50;26.63;;;11.97;;
23802;SDS011;12082;51.786;6.018;2022-08-01T01:09:23;37.80;;;15.50;;
23802;SDS011;12082;51.786;6.018;2022-08-01T01:17:32;29.40;;;13.30;;
23802;SDS011;12082;51.786;6.018;2022-08-01T01:20:44;28.30;;;12.40;;
23802;SDS011;12082;51.786;6.018;2022-08-01T01:28:30;39.97;;;14.07;;
23802;SDS011;12082;51.786;6.018;2022-08-01T01:31:02;34.97;;;15.13;;
23802;SDS011;12082;51.786;6.018;2022-08-01T01:33:33;32.53;;;14.70;;
23802;SDS011;12082;51.786;6.018;2022-08-01T01:36:02;30.83;;;12.97;;
23802;SDS011;12082;51.786;6.018;2022-08-01T01:38:34;30.20;;;12.93;;
23802;SDS011;12082;51.786;6.018;2022-08-01T01:41:07;24.30;;;11.30;;
23802;SDS011;12082;51.786;6.018;2022-08-01T01:43:34;30.40;;;12.63;;
23802;SDS011;12082;51.786;6.018;2022-08-01T01:46:02;33.67;;;12.87;;
23802;SDS011;12082;51.786;6.018;2022-08-01T01:48:29;26.10;;;12.20;;
23802;SDS011;12082;51.786;6.018;2022-08-01T01:50:56;24.73;;;11.80;;
23802;SDS011;12082;51.786;6.018;2022-08-01T01:53:22;29.83;;;12.27;;
23802;SDS011;12082;51.786;6.018;2022-08-01T01:55:50;27.97;;;11.83;;
23802;SDS011;12082;51.786;6.018;2022-08-01T01:58:18;32.50;;;13.50;;
23802;SDS011;12082;51.786;6.018;2022-08-01T02:00:45;32.80;;;13.43;;
23802;SDS011;12082;51.786;6.018;2022-08-01T02:03:13;35.97;;;13.10;;
23802;SDS011;12082;51.786;6.018;2022-08-01T02:05:39;33.53;;;13.27;;
23802;SDS011;12082;51.786;6.018;2022-08-01T02:08:07;25.77;;;12.17;;
23802;SDS011;12082;51.786;6.018;2022-08-01T02:10:36;32.63;;;14.17;;
23802;SDS011;12082;51.786;6.018;2022-08-01T02:13:03;34.70;;;14.20;;
23802;SDS011;12082;51.786;6.018;2022-08-01T02:15:31;39.47;;;14.33;;
23802;SDS011;12082;51.786;6.018;2022-08-01T02:17:58;32.77;;;13.73;;
23802;SDS011;12082;51.786;6.018;2022-08-01T02:20:27;28.90;;;13.50;;
23802;SDS011;12082;51.786;6.018;2022-08-01T02:23:00;35.80;;;13.60;;
23802;SDS011;12082;51.786;6.018;2022-08-01T02:25:44;25.20;;;11.77;;
23802;SDS011;12082;51.786;6.018;2022-08-01T02:28:15;28.70;;;12.07;;
23802;SDS011;12082;51.786;6.018;2022-08-01T02:30:46;30.37;;;12.57;;
23802;SDS011;12082;51.786;6.018;2022-08-01T02:33:20;28.87;;;12.90;;
23802;SDS011;12082;51.786;6.018;2022-08-01T02:35:52;28.30;;;11.87;;
23802;SDS011;12082;51.786;6.018;2022-08-01T02:38:23;23.77;;;11.30;;
23802;SDS011;12082;51.786;6.018;2022-08-01T02:40:52;26.93;;;11.87;;
23802;SDS011;12082;51.786;6.018;2022-08-01T02:43:23;31.90;;;11.93;;
23802;SDS011;12082;51.786;6.018;2022-08-01T02:45:54;33.60;;;14.03;;
23802;SDS011;12082;51.786;6.018;2022-08-01T02:48:26;25.63;;;12.63;;
23802;SDS011;12082;51.786;6.018;2022-08-01T02:50:54;28.77;;;12.73;;
23802;SDS011;12082;51.786;6.018;2022-08-01T02:53:23;25.17;;;11.87;;
23802;SDS011;12082;51.786;6.018;2022-08-01T02:55:51;24.63;;;10.53;;
23802;SDS011;12082;51.786;6.018;2022-08-01T02:58:18;24.13;;;10.87;;
23802;SDS011;12082;51.786;6.018;2022-08-01T03:00:46;25.53;;;11.60;;
23802;SDS011;12082;51.786;6.018;2022-08-01T03:03:13;24.10;;;11.03;;
23802;SDS011;12082;51.786;6.018;2022-08-01T03:05:39;22.80;;;11.43;;
23802;SDS011;12082;51.786;6.018;2022-08-01T03:08:07;26.70;;;11.77;;
23802;SDS011;12082;51.786;6.018;2022-08-01T03:10:36;31.93;;;12.53;;
23802;SDS011;12082;51.786;6.018;2022-08-01T03:13:03;20.47;;;11.10;;
23802;SDS011;12082;51.786;6.018;2022-08-01T03:15:31;27.43;;;11.33;;
23802;SDS011;12082;51.786;6.018;2022-08-01T03:18:00;33.77;;;11.70;;
23802;SDS011;12082;51.786;6.018;2022-08-01T03:20:29;28.07;;;12.73;;
23802;SDS011;12082;51.786;6.018;2022-08-01T03:22:57;24.33;;;10.20;;
23802;SDS011;12082;51.786;6.018;2022-08-01T03:25:26;28.97;;;11.63;;
23802;SDS011;12082;51.786;6.018;2022-08-01T03:27:54;31.30;;;12.73;;
23802;SDS011;12082;51.786;6.018;2022-08-01T03:30:23;26.90;;;12.47;;
23802;SDS011;12082;51.786;6.018;2022-08-01T03:32:51;35.00;;;12.43;;
23802;SDS011;12082;51.786;6.018;2022-08-01T03:35:17;26.00;;;11.77;;
23802;SDS011;12082;51.786;6.018;2022-08-01T03:37:44;37.13;;;14.37;;
23802;SDS011;12082;51.786;6.018;2022-08-01T03:40:25;29.50;;;12.13;;
23802;SDS011;12082;51.786;6.018;2022-08-01T03:42:52;29.80;;;11.63;;
23802;SDS011;12082;51.786;6.018;2022-08-01T03:45:23;28.13;;;12.40;;
23802;SDS011;12082;51.786;6.018;2022-08-01T03:47:53;30.43;;;11.90;;
23802;SDS011;12082;51.786;6.018;2022-08-01T03:50:24;32.90;;;12.97;;
23802;SDS011;12082;51.786;6.018;2022-08-01T03:52:50;26.77;;;11.80;;
23802;SDS011;12082;51.786;6.018;2022-08-01T03:55:17;34.77;;;13.40;;
23802;SDS011;12082;51.786;6.018;2022-08-01T03:57:45;30.17;;;11.97;;
23802;SDS011;12082;51.786;6.018;2022-08-01T04:00:12;29.90;;;12.17;;
23802;SDS011;12082;51.786;6.018;2022-08-01T04:02:38;31.80;;;11.80;;
23802;SDS011;12082;51.786;6.018;2022-08-01T04:05:04;32.87;;;12.37;;
23802;SDS011;12082;51.786;6.018;2022-08-01T04:07:31;30.80;;;12.37;;
23802;SDS011;12082;51.786;6.018;2022-08-01T04:09:58;36.00;;;13.83;;
23802;SDS011;12082;51.786;6.018;2022-08-01T04:12:24;36.23;;;14.50;;
23802;SDS011;12082;51.786;6.018;2022-08-01T04:14:49;37.50;;;14.13;;
23802;SDS011;12082;51.786;6.018;2022-08-01T04:17:15;29.83;;;11.77;;
23802;SDS011;12082;51.786;6.018;2022-08-01T04:19:41;26.37;;;11.53;;
23802;SDS011;12082;51.786;6.018;2022-08-01T04:22:08;33.07;;;11.77;;
23802;SDS011;12082;51.786;6.018;2022-08-01T04:24:36;37.30;;;13.47;;
23802;SDS011;12082;51.786;6.018;2022-08-01T04:27:03;31.67;;;11.23;;
23802;SDS011;12082;51.786;6.018;2022-08-01T04:29:33;22.80;;;10.40;;
23802;SDS011;12082;51.786;6.018;2022-08-01T04:32:00;31.73;;;10.80;;
23802;SDS011;12082;51.786;6.018;2022-08-01T04:34:27;32.53;;;13.30;;
23802;SDS011;12082;51.786;6.018;2022-08-01T04:36:55;41.30;;;13.43;;
23802;SDS011;12082;51.786;6.018;2022-08-01T04:39:23;27.77;;;11.77;;
23802;SDS011;12082;51.786;6.018;2022-08-01T04:41:55;37.57;;;13.97;;
23802;SDS011;12082;51.786;6.018;2022-08-01T04:44:24;36.67;;;13.73;;
23802;SDS011;12082;51.786;6.018;2022-08-01T04:46:50;37.27;;;14.53;;
23802;SDS011;12082;51.786;6.018;2022-08-01T04:49:19;31.43;;;13.20;;
23802;SDS011;12082;51.786;6.018;2022-08-01T04:51:52;42.37;;;14.93;;
23802;SDS011;12082;51.786;6.018;2022-08-01T04:54:26;46.13;;;15.87;;
23802;SDS011;12082;51.786;6.018;2022-08-01T04:56:52;42.57;;;16.10;;
23802;SDS011;12082;51.786;6.018;2022-08-01T04:59:20;43.07;;;15.90;;
23802;SDS011;12082;51.786;6.018;2022-08-01T05:02:05;39.47;;;16.23;;
23802;SDS011;12082;51.786;6.018;2022-08-01T05:04:31;47.70;;;15.70;;
23802;SDS011;12082;51.786;6.018;2022-08-01T05:06:57;37.70;;;14.57;;
23802;SDS011;12082;51.786;6.018;2022-08-01T05:09:22;39.77;;;12.90;;
23802;SDS011;12082;51.786;6.018;2022-08-01T05:11:48;35.17;;;13.80;;
23802;SDS011;12082;51.786;6.018;2022-08-01T05:14:13;38.30;;;15.50;;
23802;SDS011;12082;51.786;6.018;2022-08-01T05:16:39;36.20;;;14.33;;
23802;SDS011;12082;51.786;6.018;2022-08-01T05:19:04;31.00;;;14.53;;
23802;SDS011;12082;51.786;6.018;2022-08-01T05:21:30;43.03;;;15.97;;
23802;SDS011;12082;51.786;6.018;2022-08-01T05:23:56;41.03;;;16.27;;
23802;SDS011;12082;51.786;6.018;2022-08-01T05:26:22;41.30;;;15.53;;
23802;SDS011;12082;51.786;6.018;2022-08-01T05:28:48;35.03;;;13.57;;
23802;SDS011;12082;51.786;6.018;2022-08-01T05:31:14;35.53;;;13.60;;
23802;SDS011;12082;51.786;6.018;2022-08-01T05:33:39;51.00;;;14.97;;
23802;SDS011;12082;51.786;6.018;2022-08-01T05:36:05;34.43;;;12.43;;
23802;SDS011;12082;51.786;6.018;2022-08-01T05:38:30;38.13;;;13.70;;
23802;SDS011;12082;51.786;6.018;2022-08-01T05:40:56;35.73;;;14.07;;
23802;SDS011;12082;51.786;6.018;2022-08-01T05:43:22;32.73;;;13.70;;
23802;SDS011;12082;51.786;6.018;2022-08-01T05:45:47;34.50;;;12.37;;
23802;SDS011;12082;51.786;6.018;2022-08-01T05:48:13;32.00;;;13.13;;
23802;SDS011;12082;51.786;6.018;2022-08-01T05:50:38;37.43;;;13.77;;
23802;SDS011;12082;51.786;6.018;2022-08-01T05:53:04;30.03;;;14.17;;
23802;SDS011;12082;51.786;6.018;2022-08-01T05:55:29;36.20;;;14.37;;
23802;SDS011;12082;51.786;6.018;2022-08-01T05:57:55;33.50;;;14.07;;
23802;SDS011;12082;51.786;6.018;2022-08-01T06:00:21;23.97;;;11.63;;
23802;SDS011;12082;51.786;6.018;2022-08-01T06:02:46;31.20;;;13.37;;
23802;SDS011;12082;51.786;6.018;2022-08-01T06:05:12;33.43;;;13.53;;
23802;SDS011;12082;51.786;6.018;2022-08-01T06:07:37;25.40;;;13.03;;
23802;SDS011;12082;51.786;6.018;2022-08-01T06:10:04;20.60;;;11.73;;
23802;SDS011;12082;51.786;6.018;2022-08-01T06:12:34;17.70;;;10.17;;
23802;SDS011;12082;51.786;6.018;2022-08-01T06:15:00;12.67;;;6.33;;
23802;SDS011;12082;51.786;6.018;2022-08-01T06:17:26;11.00;;;5.50;;
23802;SDS011;12082;51.786;6.018;2022-08-01T06:19:52;7.13;;;4.60;;
23802;SDS011;12082;51.786;6.018;2022-08-01T06:22:17;6.57;;;3.77;;
23802;SDS011;12082;51.786;6.018;2022-08-01T06:24:43;8.37;;;3.10;;
23802;SDS011;12082;51.786;6.018;2022-08-01T06:27:08;3.33;;;2.47;;
23802;SDS011;12082;51.786;6.018;2022-08-01T06:29:34;4.73;;;2.60;;
23802;SDS011;12082;51.786;6.018;2022-08-01T06:32:00;6.00;;;2.50;;
23802;SDS011;12082;51.786;6.018;2022-08-01T06:34:25;3.37;;;2.70;;
23802;SDS011;12082;51.786;6.018;2022-08-01T06:36:51;3.03;;;2.73;;
23802;SDS011;12082;51.786;6.018;2022-08-01T06:39:17;4.93;;;4.13;;
23802;SDS011;12082;51.786;6.018;2022-08-01T06:41:42;6.73;;;3.80;;
23802;SDS011;12082;51.786;6.018;2022-08-01T06:44:11;7.73;;;4.70;;
23802;SDS011;12082;51.786;6.018;2022-08-01T06:46:37;7.80;;;5.10;;
23802;SDS011;12082;51.786;6.018;2022-08-01T06:49:03;5.40;;;3.83;;
23802;SDS011;12082;51.786;6.018;2022-08-01T06:51:28;4.63;;;2.97;;
23802;SDS011;12082;51.786;6.018;2022-08-01T06:53:54;4.67;;;2.83;;
23802;SDS011;12082;51.786;6.018;2022-08-01T06:56:20;5.70;;;3.60;;
23802;SDS011;12082;51.786;6.018;2022-08-01T06:58:46;4.50;;;3.67;;
23802;SDS011;12082;51.786;6.018;2022-08-01T07:01:11;3.73;;;3.33;;
23802;SDS011;12082;51.786;6.018;2022-08-01T07:03:37;4.00;;;2.93;;
23802;SDS011;12082;51.786;6.018;2022-08-01T07:06:03;4.80;;;2.73;;
23802;SDS011;12082;51.786;6.018;2022-08-01T07:08:28;7.13;;;2.60;;
23802;SDS011;12082;51.786;6.018;2022-08-01T07:10:54;4.40;;;2.20;;
23802;SDS011;12082;51.786;6.018;2022-08-01T07:13:24;2.80;;;2.60;;
23802;SDS011;12082;51.786;6.018;2022-08-01T07:15:51;2.87;;;2.30;;
23802;SDS011;12082;51.786;6.018;2022-08-01T07:18:17;3.00;;;2.70;;
23802;SDS011;12082;51.786;6.018;2022-08-01T07:20:43;3.23;;;2.50;;
23802;SDS011;12082;51.786;6.018;2022-08-01T07:23:10;4.53;;;2.07;;
23802;SDS011;12082;51.786;6.018;2022-08-01T07:25:37;3.90;;;2.73;;
23802;SDS011;12082;51.786;6.018;2022-08-01T07:28:02;4.17;;;3.23;;
23802;SDS011;12082;51.786;6.018;2022-08-01T07:30:28;3.73;;;3.30;;
23802;SDS011;12082;51.786;6.018;2022-08-01T07:32:54;3.10;;;2.70;;
23802;SDS011;12082;51.786;6.018;2022-08-01T07:35:19;4.70;;;2.83;;
23802;SDS011;12082;51.786;6.018;2022-08-01T07:37:45;4.00;;;2.63;;
23802;SDS011;12082;51.786;6.018;2022-08-01T07:40:10;8.47;;;2.97;;
23802;SDS011;12082;51.786;6.018;2022-08-01T07:42:36;8.27;;;4.23;;
23802;SDS011;12082;51.786;6.018;2022-08-01T07:45:02;8.53;;;3.60;;
23802;SDS011;12082;51.786;6.018;2022-08-01T07:47:27;3.43;;;2.60;;
23802;SDS011;12082;51.786;6.018;2022-08-01T07:49:58;2.40;;;1.93;;
23802;SDS011;12082;51.786;6.018;2022-08-01T07:52:25;1.60;;;1.50;;
23802;SDS011;12082;51.786;6.018;2022-08-01T07:54:51;2.23;;;1.30;;
23802;SDS011;12082;51.786;6.018;2022-08-01T07:57:17;1.20;;;1.10;;
23802;SDS011;12082;51.786;6.018;2022-08-01T07:59:43;1.43;;;1.23;;
23802;SDS011;12082;51.786;6.018;2022-08-01T08:02:08;1.57;;;1.20;;
23802;SDS011;12082;51.786;6.018;2022-08-01T08:04:34;1.13;;;1.03;;
23802;SDS011;12082;51.786;6.018;2022-08-01T08:07:00;1.73;;;1.10;;
23802;SDS011;12082;51.786;6.018;2022-08-01T08:09:25;1.33;;;0.90;;
23802;SDS011;12082;51.786;6.018;2022-08-01T08:11:51;1.03;;;0.83;;
23802;SDS011;12082;51.786;6.018;2022-08-01T08:14:17;1.07;;;1.00;;
23802;SDS011;12082;51.786;6.018;2022-08-01T08:16:43;1.00;;;0.90;;
23802;SDS011;12082;51.786;6.018;2022-08-01T08:19:09;0.80;;;0.80;;
23802;SDS011;12082;51.786;6.018;2022-08-01T08:21:35;0.80;;;0.80;;
23802;SDS011;12082;51.786;6.018;2022-08-01T08:24:01;2.20;;;0.90;;
23802;SDS011;12082;51.786;6.018;2022-08-01T08:26:48;0.93;;;0.90;;
23802;SDS011;12082;51.786;6.018;2022-08-01T08:29:15;1.10;;;1.10;;
23802;SDS011;12082;51.786;6.018;2022-08-01T08:31:41;2.03;;;1.20;;
23802;SDS011;12082;51.786;6.018;2022-08-01T08:34:07;2.13;;;0.90;;
23802;SDS011;12082;51.786;6.018;2022-08-01T08:36:33;1.33;;;0.93;;
23802;SDS011;12082;51.786;6.018;2022-08-01T08:38:58;0.90;;;0.90;;
23802;SDS011;12082;51.786;6.018;2022-08-01T08:41:29;1.10;;;1.00;;
23802;SDS011;12082;51.786;6.018;2022-08-01T08:43:55;1.33;;;0.80;;
23802;SDS011;12082;51.786;6.018;2022-08-01T08:46:23;1.97;;;1.20;;
23802;SDS011;12082;51.786;6.018;2022-08-01T08:48:49;1.27;;;1.17;;
23802;SDS011;12082;51.786;6.018;2022-08-01T08:51:16;1.13;;;1.03;;
23802;SDS011;12082;51.786;6.018;2022-08-01T08:53:44;2.40;;;1.07;;
23802;SDS011;12082;51.786;6.018;2022-08-01T08:56:13;2.20;;;1.50;;
23802;SDS011;12082;51.786;6.018;2022-08-01T08:58:44;1.30;;;1.20;;
23802;SDS011;12082;51.786;6.018;2022-08-01T09:01:10;1.00;;;0.90;;
23802;SDS011;12082;51.786;6.018;2022-08-01T09:03:37;1.10;;;0.80;;
23802;SDS011;12082;51.786;6.018;2022-08-01T09:06:04;2.30;;;0.93;;
23802;SDS011;12082;51.786;6.018;2022-08-01T09:08:30;1.07;;;0.90;;
23802;SDS011;12082;51.786;6.018;2022-08-01T09:10:56;1.13;;;0.80;;
23802;SDS011;12082;51.786;6.018;2022-08-01T09:13:21;1.33;;;1.10;;
23802;SDS011;12082;51.786;6.018;2022-08-01T09:15:48;1.70;;;1.37;;
23802;SDS011;12082;51.786;6.018;2022-08-01T09:23:53;2.07;;;1.50;;
23802;SDS011;12082;51.786;6.018;2022-08-01T09:26:28;3.00;;;1.60;;
23802;SDS011;12082;51.786;6.018;2022-08-01T09:28:56;1.20;;;1.10;;
23802;SDS011;12082;51.786;6.018;2022-08-01T09:31:22;1.77;;;1.20;;
23802;SDS011;12082;51.786;6.018;2022-08-01T09:33:52;1.20;;;1.10;;
23802;SDS011;12082;51.786;6.018;2022-08-01T09:36:23;2.80;;;1.10;;
23802;SDS011;12082;51.786;6.018;2022-08-01T09:38:51;2.80;;;1.57;;
23802;SDS011;12082;51.786;6.018;2022-08-01T09:41:19;2.43;;;1.10;;
23802;SDS011;12082;51.786;6.018;2022-08-01T09:43:55;2.97;;;1.20;;
23802;SDS011;12082;51.786;6.018;2022-08-01T09:46:20;2.50;;;1.47;;
23802;SDS011;12082;51.786;6.018;2022-08-01T09:51:33;3.13;;;1.33;;
23802;SDS011;12082;51.786;6.018;2022-08-01T09:54:04;1.80;;;1.10;;
23802;SDS011;12082;51.786;6.018;2022-08-01T09:56:37;4.07;;;1.13;;
23802;SDS011;12082;51.786;6.018;2022-08-01T09:59:05;2.30;;;1.50;;
23802;SDS011;12082;51.786;6.018;2022-08-01T10:01:47;2.10;;;1.20;;
23802;SDS011;12082;51.786;6.018;2022-08-01T10:04:16;3.53;;;1.50;;
23802;SDS011;12082;51.786;6.018;2022-08-01T10:06:46;3.10;;;1.60;;
23802;SDS011;12082;51.786;6.018;2022-08-01T10:09:26;1.73;;;1.30;;
23802;SDS011;12082;51.786;6.018;2022-08-01T10:11:53;4.20;;;1.37;;
23802;SDS011;12082;51.786;6.018;2022-08-01T10:14:22;2.87;;;1.60;;
23802;SDS011;12082;51.786;6.018;2022-08-01T10:16:49;1.73;;;1.60;;
23802;SDS011;12082;51.786;6.018;2022-08-01T10:19:18;2.37;;;1.53;;
23802;SDS011;12082;51.786;6.018;2022-08-01T10:21:47;3.80;;;2.10;;
23802;SDS011;12082;51.786;6.018;2022-08-01T10:24:17;2.47;;;1.90;;
23802;SDS011;12082;51.786;6.018;2022-08-01T10:26:48;5.00;;;2.27;;
23802;SDS011;12082;51.786;6.018;2022-08-01T10:29:16;2.33;;;1.83;;
23802;SDS011;12082;51.786;6.018;2022-08-01T10:31:45;2.50;;;1.70;;
23802;SDS011;12082;51.786;6.018;2022-08-01T10:34:15;2.37;;;1.80;;
23802;SDS011;12082;51.786;6.018;2022-08-01T10:36:44;2.97;;;1.70;;
23802;SDS011;12082;51.786;6.018;2022-08-01T10:39:11;5.47;;;1.30;;
23802;SDS011;12082;51.786;6.018;2022-08-01T10:41:40;2.10;;;1.20;;
23802;SDS011;12082;51.786;6.018;2022-08-01T10:44:07;2.77;;;1.00;;
23802;SDS011;12082;51.786;6.018;2022-08-01T10:46:34;0.87;;;0.83;;
23802;SDS011;12082;51.786;6.018;2022-08-01T10:49:10;1.93;;;1.37;;
23802;SDS011;12082;51.786;6.018;2022-08-01T10:51:39;2.00;;;1.30;;
23802;SDS011;12082;51.786;6.018;2022-08-01T10:54:05;1.97;;;1.40;;
23802;SDS011;12082;51.786;6.018;2022-08-01T10:56:39;2.83;;;1.20;;
23802;SDS011;12082;51.786;6.018;2022-08-01T10:59:08;1.90;;;1.13;;
23802;SDS011;12082;51.786;6.018;2022-08-01T11:01:34;1.50;;;1.40;;
23802;SDS011;12082;51.786;6.018;2022-08-01T11:04:11;3.37;;;2.20;;
23802;SDS011;12082;51.786;6.018;2022-08-01T11:07:11;3.83;;;1.80;;
23802;SDS011;12082;51.786;6.018;2022-08-01T11:12:08;4.40;;;2.70;;
23802;SDS011;12082;51.786;6.018;2022-08-01T11:17:37;4.67;;;3.83;;
23802;SDS011;12082;51.786;6.018;2022-08-01T11:30:41;5.13;;;3.00;;
23802;SDS011;12082;51.786;6.018;2022-08-01T11:33:07;5.53;;;3.17;;
23802;SDS011;12082;51.786;6.018;2022-08-01T11:35:34;5.43;;;2.40;;
23802;SDS011;12082;51.786;6.018;2022-08-01T11:41:35;4.50;;;3.17;;
23802;SDS011;12082;51.786;6.018;2022-08-01T11:44:07;5.03;;;3.13;;
23802;SDS011;12082;51.786;6.018;2022-08-01T11:49:43;4.97;;;3.57;;
23802;SDS011;12082;51.786;6.018;2022-08-01T11:57:23;4.87;;;3.40;;
23802;SDS011;12082;51.786;6.018;2022-08-01T11:59:54;8.53;;;2.77;;
23802;SDS011;12082;51.786;6.018;2022-08-01T12:02:22;7.27;;;3.20;;
23802;SDS011;12082;51.786;6.018;2022-08-01T12:04:56;3.43;;;2.50;;
23802;SDS011;12082;51.786;6.018;2022-08-01T12:07:24;3.53;;;2.40;;
23802;SDS011;12082;51.786;6.018;2022-08-01T12:09:57;11.10;;;2.67;;
23802;SDS011;12082;51.786;6.018;2022-08-01T12:12:25;3.63;;;2.30;;
23802;SDS011;12082;51.786;6.018;2022-08-01T12:14:52;4.90;;;2.13;;
23802;SDS011;12082;51.786;6.018;2022-08-01T12:17:35;3.83;;;2.10;;
23802;SDS011;12082;51.786;6.018;2022-08-01T12:20:04;7.83;;;2.73;;
23802;SDS011;12082;51.786;6.018;2022-08-01T12:22:31;3.83;;;2.17;;
23802;SDS011;12082;51.786;6.018;2022-08-01T12:25:04;9.37;;;1.90;;
23802;SDS011;12082;51.786;6.018;2022-08-01T12:27:32;4.00;;;1.47;;
23802;SDS011;12082;51.786;6.018;2022-08-01T12:29:58;2.87;;;1.57;;
23802;SDS011;12082;51.786;6.018;2022-08-01T12:32:28;2.07;;;1.17;;
23802;SDS011;12082;51.786;6.018;2022-08-01T12:34:56;6.30;;;1.70;;
23802;SDS011;12082;51.786;6.018;2022-08-01T12:37:25;2.80;;;1.50;;
23802;SDS011;12082;51.786;6.018;2022-08-01T12:39:51;2.87;;;1.60;;
23802;SDS011;12082;51.786;6.018;2022-08-01T12:42:18;4.70;;;1.60;;
23802;SDS011;12082;51.786;6.018;2022-08-01T12:44:45;3.23;;;1.83;;
23802;SDS011;12082;51.786;6.018;2022-08-01T12:47:13;7.60;;;2.10;;
23802;SDS011;12082;51.786;6.018;2022-08-01T12:49:40;4.70;;;1.80;;
23802;SDS011;12082;51.786;6.018;2022-08-01T12:52:08;7.93;;;2.50;;
23802;SDS011;12082;51.786;6.018;2022-08-01T12:57:27;5.03;;;2.03;;
23802;SDS011;12082;51.786;6.018;2022-08-01T12:59:53;5.20;;;2.70;;
23802;SDS011;12082;51.786;6.018;2022-08-01T13:02:32;7.60;;;2.40;;
23802;SDS011;12082;51.786;6.018;2022-08-01T13:04:58;5.30;;;2.67;;
23802;SDS011;12082;51.786;6.018;2022-08-01T13:07:34;6.13;;;1.90;;
23802;SDS011;12082;51.786;6.018;2022-08-01T13:10:07;9.07;;;2.73;;
23802;SDS011;12082;51.786;6.018;2022-08-01T13:12:34;5.03;;;2.17;;
23802;SDS011;12082;51.786;6.018;2022-08-01T13:15:15;3.53;;;1.87;;
23802;SDS011;12082;51.786;6.018;2022-08-01T13:18:02;6.57;;;2.37;;
23802;SDS011;12082;51.786;6.018;2022-08-01T13:20:47;6.20;;;2.10;;
23802;SDS011;12082;51.786;6.018;2022-08-01T13:23:14;5.57;;;2.10;;
23802;SDS011;12082;51.786;6.018;2022-08-01T13:25:52;5.13;;;1.97;;
23802;SDS011;12082;51.786;6.018;2022-08-01T13:28:20;3.57;;;1.80;;
23802;SDS011;12082;51.786;6.018;2022-08-01T13:30:57;9.63;;;2.37;;
23802;SDS011;12082;51.786;6.018;2022-08-01T13:33:28;4.10;;;2.07;;
23802;SDS011;12082;51.786;6.018;2022-08-01T13:36:06;5.93;;;2.30;;
23802;SDS011;12082;51.786;6.018;2022-08-01T13:38:31;5.23;;;2.07;;
23802;SDS011;12082;51.786;6.018;2022-08-01T13:41:16;4.27;;;1.80;;
23802;SDS011;12082;51.786;6.018;2022-08-01T13:43:42;7.33;;;2.07;;
23802;SDS011;12082;51.786;6.018;2022-08-01T13:46:08;6.00;;;1.90;;
23802;SDS011;12082;51.786;6.018;2022-08-01T13:48:33;6.20;;;2.00;;
23802;SDS011;12082;51.786;6.018;2022-08-01T13:50:59;4.20;;;2.07;;
23802;SDS011;12082;51.786;6.018;2022-08-01T13:53:25;5.73;;;1.87;;
23802;SDS011;12082;51.786;6.018;2022-08-01T13:55:51;5.07;;;2.50;;
23802;SDS011;12082;51.786;6.018;2022-08-01T13:58:17;6.13;;;2.07;;
23802;SDS011;12082;51.786;6.018;2022-08-01T14:00:43;7.00;;;1.87;;
23802;SDS011;12082;51.786;6.018;2022-08-01T14:03:08;6.23;;;2.20;;
23802;SDS011;12082;51.786;6.018;2022-08-01T14:05:35;7.03;;;1.87;;
23802;SDS011;12082;51.786;6.018;2022-08-01T14:08:01;9.10;;;2.20;;
23802;SDS011;12082;51.786;6.018;2022-08-01T14:10:27;5.60;;;1.90;;
23802;SDS011;12082;51.786;6.018;2022-08-01T14:12:54;6.03;;;1.70;;
23802;SDS011;12082;51.786;6.018;2022-08-01T14:15:21;11.10;;;2.10;;
23802;SDS011;12082;51.786;6.018;2022-08-01T14:17:47;5.57;;;1.77;;
23802;SDS011;12082;51.786;6.018;2022-08-01T14:20:12;7.10;;;2.43;;
23802;SDS011;12082;51.786;6.018;2022-08-01T14:22:38;6.67;;;1.90;;
23802;SDS011;12082;51.786;6.018;2022-08-01T14:25:05;5.60;;;1.83;;
23802;SDS011;12082;51.786;6.018;2022-08-01T14:27:31;4.20;;;2.13;;
23802;SDS011;12082;51.786;6.018;2022-08-01T14:30:01;8.03;;;1.90;;
23802;SDS011;12082;51.786;6.018;2022-08-01T14:32:27;6.13;;;1.97;;
23802;SDS011;12082;51.786;6.018;2022-08-01T14:34:52;8.57;;;2.37;;
23802;SDS011;12082;51.786;6.018;2022-08-01T14:37:18;6.60;;;2.00;;
23802;SDS011;12082;51.786;6.018;2022-08-01T14:39:43;5.03;;;2.20;;
23802;SDS011;12082;51.786;6.018;2022-08-01T14:42:09;6.63;;;1.70;;
23802;SDS011;12082;51.786;6.018;2022-08-01T14:44:35;4.23;;;2.00;;
23802;SDS011;12082;51.786;6.018;2022-08-01T14:47:00;4.40;;;1.77;;
23802;SDS011;12082;51.786;6.018;2022-08-01T14:49:26;6.77;;;1.90;;
23802;SDS011;12082;51.786;6.018;2022-08-01T14:51:51;4.77;;;1.93;;
23802;SDS011;12082;51.786;6.018;2022-08-01T14:54:17;9.43;;;2.13;;
23802;SDS011;12082;51.786;6.018;2022-08-01T14:56:43;4.97;;;2.20;;
23802;SDS011;12082;51.786;6.018;2022-08-01T14:59:09;5.47;;;1.70;;
23802;SDS011;12082;51.786;6.018;2022-08-01T15:01:35;3.37;;;1.73;;
23802;SDS011;12082;51.786;6.018;2022-08-01T15:04:00;4.63;;;2.03;;
23802;SDS011;12082;51.786;6.018;2022-08-01T15:06:26;7.00;;;2.17;;
23802;SDS011;12082;51.786;6.018;2022-08-01T15:08:52;6.60;;;2.00;;
23802;SDS011;12082;51.786;6.018;2022-08-01T15:11:17;5.23;;;2.20;;
23802;SDS011;12082;51.786;6.018;2022-08-01T15:13:43;4.73;;;1.73;;
23802;SDS011;12082;51.786;6.018;2022-08-01T15:16:09;3.57;;;1.63;;
23802;SDS011;12082;51.786;6.018;2022-08-01T15:18:35;4.67;;;1.93;;
23802;SDS011;12082;51.786;6.018;2022-08-01T15:21:00;5.63;;;1.97;;
23802;SDS011;12082;51.786;6.018;2022-08-01T15:23:26;5.50;;;1.60;;
23802;SDS011;12082;51.786;6.018;2022-08-01T15:25:51;6.13;;;2.30;;
23802;SDS011;12082;51.786;6.018;2022-08-01T15:28:17;7.73;;;2.00;;
23802;SDS011;12082;51.786;6.018;2022-08-01T15:30:44;5.90;;;1.90;;
23802;SDS011;12082;51.786;6.018;2022-08-01T15:33:10;6.63;;;1.80;;